Terminal Aerodrome Forecast
Issued by NWS

Home | Current Version | Previous Version | Graphics & Text | Print | Product List | Glossary On
Versions: 1 2 3 4 5 6 7 8 9 10 11 12 13 14 15 16
000
FTUS43 KGRB 201720
TAFCWA
TAF
KCWA 201720Z 2018/2118 32009KT P6SM BKN028
     FM202100 30008KT P6SM SCT045
     FM210300 VRB03KT P6SM FEW250
      TEMPO 2108/2111 2SM BR
     FM211600 22007KT P6SM SCT035=

USA.gov is the U.S. government's official web portal to all federal, state and local government web resources and services.